.
WxDataArchive / Data Records for 2007-05-28
2007-05-27 May 2007 2007-05-29

Data Records for Monday, 28 May 2007

Time	Temp	Chill	HIndex	Humid	Dewpt	 Wind 	HiWind	WindDir	Rain 	Barom 
-----	----	-----	------	-----	-----	------	------	-------	-----	----- 
00:00	63.7	63.7	63.7	94	61.9	0	0	---	0.00	30.065 
00:05	63.5	63.5	63.5	94	61.7	0	0	---	0.00	30.065 
00:10	63.2	63.2	63.2	94	61.4	0	0	---	0.00	30.063 
00:15	63.1	63.1	63.1	94	61.3	0	0	---	0.00	30.061 
00:20	62.9	62.9	62.9	94	61.1	0	0	---	0.00	30.062 
00:25	62.9	62.9	62.9	95	61.4	0	0	---	0.00	30.062 
00:30	62.7	62.7	62.7	95	61.2	0	0	---	0.00	30.063 
00:35	62.7	62.7	62.7	95	61.2	0	0	---	0.00	30.062 
00:40	62.6	62.6	62.6	95	61.1	0	0	---	0.00	30.062 
00:45	62.4	62.4	62.4	95	60.9	0	0	---	0.00	30.068 
00:50	62.1	62.1	62.1	95	60.6	0	0	---	0.00	30.069 
00:55	61.8	61.8	61.8	95	60.3	0	0	---	0.00	30.069 
01:00	62.1	62.1	62.1	96	60.9	0	0	---	0.00	30.073 
01:05	62.1	62.1	62.1	96	60.9	0	0	---	0.00	30.072 
01:10	62.0	62.0	62.0	96	60.8	0	0	---	0.00	30.072 
01:15	61.8	61.8	61.8	96	60.6	0	0	---	0.00	30.073 
01:20	61.8	61.8	61.8	96	60.6	0	1	248	0.00	30.073 
01:25	62.1	62.1	62.1	96	60.9	0	0	---	0.00	30.072 
01:30	62.1	62.1	62.1	96	60.9	0	0	---	0.00	30.076 
01:35	62.0	62.0	62.0	96	60.8	0	0	---	0.00	30.076 
01:40	62.4	62.4	62.4	96	61.2	0	1	248	0.00	30.077 
01:45	62.7	62.7	62.7	97	61.8	0	1	248	0.00	30.077 
01:50	62.7	62.7	62.7	96	61.5	0	0	---	0.00	30.077 
01:55	62.6	62.6	62.6	96	61.4	0	0	---	0.00	30.077 
02:00	62.4	62.4	62.4	96	61.2	0	0	---	0.00	30.077 
02:05	62.1	62.1	62.1	96	60.9	0	0	---	0.00	30.077 
02:10	61.8	61.8	61.8	96	60.6	0	0	---	0.00	30.078 
02:15	61.5	61.5	61.5	96	60.3	0	0	---	0.00	30.078 
02:20	61.3	61.3	61.3	96	60.1	0	0	---	0.00	30.079 
02:25	61.0	61.0	61.0	96	59.8	0	0	---	0.00	30.079 
02:30	61.0	61.0	61.0	96	59.8	0	0	---	0.00	30.079 
02:35	61.2	61.2	61.2	97	60.3	0	0	---	0.00	30.079 
02:40	60.9	60.9	60.9	97	60.0	0	0	---	0.00	30.079 
02:45	60.7	60.7	60.7	97	59.8	0	0	---	0.00	30.080 
02:50	60.4	60.4	60.4	97	59.5	0	0	---	0.00	30.081 
02:55	60.1	60.1	60.1	97	59.2	0	0	---	0.00	30.083 
03:00	59.9	59.9	59.9	97	59.0	0	0	---	0.00	30.086 
03:05	59.6	59.6	59.6	97	58.7	0	0	---	0.00	30.082 
03:10	59.3	59.3	59.3	97	58.4	0	0	---	0.00	30.082 
03:15	59.2	59.2	59.2	96	58.1	0	0	---	0.00	30.082 
03:20	58.9	58.9	58.9	96	57.8	0	0	---	0.00	30.081 
03:25	58.6	58.6	58.6	96	57.5	0	0	---	0.00	30.081 
03:30	58.3	58.3	58.3	96	57.2	0	0	---	0.00	30.086 
03:35	58.0	58.0	58.0	96	56.9	0	0	---	0.00	30.088 
03:40	57.8	57.8	57.8	96	56.7	0	0	---	0.00	30.090 
03:45	57.6	57.6	57.6	96	56.5	0	0	---	0.00	30.091 
03:50	57.3	57.3	57.3	96	56.2	0	0	---	0.00	30.093 
03:55	57.2	57.2	57.2	96	56.1	0	0	---	0.00	30.093 
04:00	57.0	57.0	57.0	96	55.9	0	0	---	0.00	30.095 
04:05	56.7	56.7	56.7	96	55.6	0	0	---	0.00	30.093 
04:10	56.5	56.5	56.5	96	55.4	0	0	---	0.00	30.093 
04:15	56.2	56.2	56.2	96	55.1	0	0	---	0.00	30.094 
04:20	56.0	56.0	56.0	96	54.9	0	0	---	0.00	30.097 
04:25	55.7	55.7	55.7	96	54.6	0	0	---	0.00	30.097 
04:30	55.6	55.6	55.6	96	54.5	0	0	---	0.00	30.098 
04:35	55.4	55.4	55.4	96	54.3	0	0	---	0.00	30.099 
04:40	55.3	55.3	55.3	96	54.2	0	0	---	0.00	30.099 
04:45	55.0	55.0	55.0	96	53.9	0	0	---	0.00	30.099 
04:50	54.8	54.8	54.8	96	53.7	0	0	---	0.00	30.100 
04:55	54.8	54.8	54.8	96	53.7	0	0	---	0.00	30.099 
05:00	54.7	54.7	54.7	97	53.9	0	0	---	0.00	30.101 
05:05	54.7	54.7	54.7	97	53.9	0	0	---	0.00	30.106 
05:10	54.5	54.5	54.5	97	53.7	0	0	---	0.00	30.109 
05:15	54.7	54.7	54.7	97	53.9	0	0	---	0.00	30.110 
05:20	54.7	54.7	54.7	97	53.9	0	0	---	0.00	30.113 
05:25	54.8	54.8	54.8	97	54.0	0	0	---	0.00	30.115 
05:30	55.0	55.0	55.0	97	54.2	0	0	---	0.00	30.116 
05:35	55.1	55.1	55.1	97	54.3	0	0	---	0.00	30.117 
05:40	55.3	55.3	55.3	97	54.5	0	0	---	0.00	30.117 
05:45	55.6	55.6	55.6	97	54.8	0	0	---	0.00	30.119 
05:50	55.6	55.6	55.6	97	54.8	0	0	---	0.00	30.122 
05:55	55.7	55.7	55.7	97	54.9	0	0	---	0.00	30.123 
06:00	55.7	55.7	55.7	97	54.9	0	0	---	0.00	30.120 
06:05	55.7	55.7	55.7	97	54.9	0	0	---	0.00	30.125 
06:10	55.7	55.7	55.7	97	54.9	0	0	---	0.00	30.127 
06:15	55.7	55.7	55.7	97	54.9	0	0	---	0.00	30.129 
06:20	55.9	55.9	55.9	97	55.1	0	0	---	0.00	30.129 
06:25	56.0	56.0	56.0	98	55.4	0	0	---	0.00	30.130 
06:30	56.0	56.0	56.0	98	55.4	0	0	---	0.00	30.129 
06:35	56.3	56.3	56.3	98	55.7	0	0	---	0.00	30.130 
06:40	56.5	56.5	56.5	98	55.9	0	0	---	0.00	30.132 
06:45	56.7	56.7	56.7	98	56.1	0	0	---	0.00	30.135 
06:50	57.3	57.3	57.3	98	56.7	0	0	---	0.00	30.139 
06:55	58.1	58.1	58.1	98	57.5	0	0	---	0.00	30.140 
07:00	58.6	58.6	58.6	98	58.0	0	0	---	0.00	30.142 
07:05	58.9	58.9	58.9	98	58.3	0	0	---	0.00	30.144 
07:10	59.2	59.2	59.2	98	58.6	0	0	---	0.00	30.145 
07:15	59.6	59.6	59.6	98	59.0	0	0	---	0.00	30.145 
07:20	60.4	60.4	60.4	98	59.8	0	1	248	0.00	30.147 
07:25	60.9	60.9	60.9	98	60.3	0	0	---	0.00	30.149 
07:30	61.3	61.3	61.3	98	60.7	0	0	---	0.00	30.152 
07:35	61.3	61.3	61.3	97	60.4	0	1	248	0.00	30.152 
07:40	61.2	61.2	61.2	96	60.0	0	0	---	0.00	30.157 
07:45	61.2	61.2	61.2	96	60.0	0	1	248	0.00	30.158 
07:50	61.6	61.6	61.6	94	59.9	0	1	248	0.00	30.158 
07:55	62.6	62.6	62.6	89	59.3	0	1	248	0.00	30.156 
08:00	63.1	63.1	63.1	81	57.2	0	1	248	0.00	30.157 
08:05	64.8	64.8	64.8	77	57.4	0	1	248	0.00	30.158 
08:10	66.1	66.1	66.1	70	56.0	0	2	248	0.00	30.159 
08:15	66.4	66.4	66.4	63	53.4	0	0	---	0.00	30.161 
08:20	67.4	67.4	67.4	64	54.8	0	1	248	0.00	30.160 
08:25	68.4	68.4	68.4	60	54.0	0	1	248	0.00	30.163 
08:30	68.9	68.9	68.9	59	54.0	0	1	248	0.00	30.163 
08:35	69.9	69.9	69.9	54	52.5	0	1	248	0.00	30.165 
08:40	70.8	70.8	70.8	50	51.2	0	2	248	0.00	30.163 
08:45	71.5	71.5	71.5	49	51.3	0	1	248	0.00	30.163 
08:50	71.8	71.8	71.8	52	53.2	0	2	248	0.00	30.163 
08:55	71.5	71.5	71.5	58	55.9	1	3	248	0.00	30.163 
09:00	71.6	71.6	71.6	49	51.4	1	3	158	0.00	30.163 
09:05	71.8	71.8	71.8	52	53.2	0	2	158	0.00	30.162 
09:10	72.1	72.1	72.1	49	51.9	1	3	135	0.00	30.165 
09:15	72.0	72.0	72.0	47	50.7	1	3	135	0.00	30.166 
09:20	71.8	71.8	71.8	44	48.7	1	3	135	0.00	30.164 
09:25	72.0	72.0	72.0	42	47.6	1	3	135	0.00	30.164 
09:30	72.5	72.5	72.5	39	46.1	1	2	135	0.00	30.166 
09:35	72.5	72.5	72.5	34	42.5	2	4	90	0.00	30.166 
09:40	73.0	73.0	73.0	40	47.2	0	1	90	0.00	30.164 
09:45	73.5	73.5	73.5	32	41.8	1	3	90	0.00	30.163 
09:50	73.9	73.9	73.9	36	45.2	1	3	90	0.00	30.165 
09:55	74.0	74.0	74.0	36	45.3	1	3	90	0.00	30.165 
10:00	74.0	74.0	74.0	35	44.6	1	3	90	0.00	30.166 
10:05	74.0	74.0	74.0	42	49.4	0	2	90	0.00	30.165 
10:10	74.6	74.6	74.6	37	46.6	0	2	90	0.00	30.167 
10:15	74.4	74.4	74.4	36	45.7	0	2	90	0.00	30.166 
10:20	74.6	74.6	74.6	35	45.1	1	3	90	0.00	30.166 
10:25	74.6	74.6	74.6	34	44.4	1	3	90	0.00	30.168 
10:30	73.9	73.9	73.9	36	45.2	1	3	90	0.00	30.169 
10:35	73.5	73.5	73.5	38	46.3	1	3	90	0.00	30.169 
10:40	73.2	73.2	73.2	40	47.4	0	3	90	0.00	30.170 
10:45	73.2	73.2	73.2	43	49.3	0	1	90	0.00	30.169 
10:50	73.5	73.5	73.5	40	47.7	1	2	90	0.00	30.168 
10:55	73.7	73.7	73.7	36	45.1	1	3	90	0.00	30.168 
11:00	74.2	74.2	74.2	35	44.8	0	2	90	0.00	30.169 
11:05	74.4	74.4	74.4	35	44.9	0	2	90	0.00	30.171 
11:10	74.6	74.6	74.6	34	44.4	0	1	90	0.00	30.171 
11:15	75.3	75.3	77.4	35	45.7	1	3	90	0.00	30.170 
11:20	75.6	75.6	77.5	36	46.7	0	2	90	0.00	30.171 
11:25	75.6	75.6	77.4	35	46.0	1	3	90	0.00	30.168 
11:30	75.6	75.6	77.6	38	48.2	2	4	90	0.00	30.168 
11:35	75.6	75.6	77.4	35	46.0	2	3	90	0.00	30.168 
11:40	75.8	75.8	77.7	40	49.7	2	4	90	0.00	30.167 
11:45	75.8	75.8	77.7	38	48.4	1	4	90	0.00	30.164 
11:50	76.1	76.1	77.6	34	45.7	2	4	90	0.00	30.163 
11:55	76.7	76.7	77.6	31	43.8	1	3	112	0.00	30.160 
12:00	76.8	76.8	77.9	36	47.8	1	4	90	0.00	30.156 
12:05	76.5	76.5	77.9	37	48.3	2	4	90	0.00	30.156 
12:10	76.5	76.5	77.8	35	46.8	1	2	90	0.00	30.158 
12:15	76.5	76.5	77.8	35	46.8	0	1	90	0.00	30.159 
12:20	76.7	76.7	77.9	35	47.0	1	3	292	0.00	30.160 
12:25	76.5	76.5	77.9	37	48.3	1	3	315	0.00	30.156 
12:30	76.7	76.7	77.6	31	43.8	1	3	90	0.00	30.154 
12:35	76.5	76.5	77.7	34	46.0	2	4	90	0.00	30.155 
12:40	76.5	76.5	77.8	35	46.8	1	4	112	0.00	30.153 
12:45	76.7	76.7	78.0	38	49.2	0	3	112	0.00	30.151 
12:50	76.8	76.8	77.8	34	46.3	1	3	90	0.00	30.150 
12:55	77.2	77.2	78.0	34	46.6	1	2	90	0.00	30.145 
13:00	77.7	77.7	78.5	39	50.7	1	2	90	0.00	30.140 
13:05	78.1	78.1	78.8	40	51.8	2	5	90	0.00	30.138 
13:10	78.5	78.5	79.2	44	54.7	1	4	90	0.00	30.137 
13:15	77.9	77.9	78.4	35	48.0	3	6	90	0.00	30.140 
13:20	77.6	77.6	78.3	36	48.5	1	4	112	0.00	30.137 
13:25	77.4	77.4	78.4	39	50.5	1	5	112	0.00	30.137 
13:30	77.0	77.0	78.3	41	51.5	0	1	90	0.00	30.137 
13:35	77.0	77.0	78.0	36	48.0	1	3	90	0.00	30.136 
13:40	77.2	77.2	78.2	38	49.6	1	4	90	0.00	30.136 
13:45	77.6	77.6	78.2	35	47.8	2	5	112	0.00	30.135 
13:50	77.7	77.7	78.2	33	46.3	2	4	90	0.00	30.135 
13:55	78.1	78.1	78.6	37	49.7	2	4	112	0.00	30.133 
14:00	78.5	78.5	78.6	33	47.0	1	4	112	0.00	30.128 
14:05	78.8	78.8	78.6	32	46.4	2	4	90	0.00	30.129 
14:10	79.0	79.0	78.9	34	48.2	2	5	90	0.00	30.129 
14:15	79.0	79.0	79.0	36	49.7	2	5	112	0.00	30.126 
14:20	79.4	79.4	79.0	32	46.9	2	4	112	0.00	30.126 
14:25	79.6	79.6	79.7	40	53.1	2	4	112	0.00	30.125 
14:30	79.8	79.8	79.6	38	51.9	2	5	90	0.00	30.124 
14:35	79.2	79.2	79.1	35	49.2	2	5	90	0.00	30.125 
14:40	79.0	79.0	78.8	33	47.4	3	6	90	0.00	30.125 
14:45	79.2	79.2	79.5	42	54.1	3	5	90	0.00	30.122 
14:50	79.2	79.2	79.2	37	50.7	2	5	90	0.00	30.123 
14:55	79.4	79.4	79.0	33	47.8	2	7	90	0.00	30.122 
15:00	79.2	79.2	78.9	33	47.6	2	5	90	0.00	30.122 
15:05	79.4	79.4	79.7	42	54.3	1	4	90	0.00	30.123 
15:10	79.8	79.8	79.7	39	52.6	2	4	68	0.00	30.122 
15:15	79.8	79.8	79.4	35	49.7	2	4	90	0.00	30.120 
15:20	79.9	79.9	79.3	32	47.4	1	4	112	0.00	30.120 
15:25	80.1	80.1	79.8	37	51.5	1	3	112	0.00	30.116 
15:30	80.7	80.7	80.3	39	53.4	0	3	112	0.00	30.113 
15:35	80.9	80.9	80.1	34	49.9	1	4	112	0.00	30.111 
15:40	81.1	81.1	80.2	34	50.0	1	3	158	0.00	30.110 
15:45	80.7	80.7	80.1	36	51.2	2	4	90	0.00	30.108 
15:50	80.9	80.9	80.1	34	49.9	1	2	112	0.00	30.107 
15:55	80.9	80.9	80.2	36	51.4	2	4	90	0.00	30.106 
16:00	80.7	80.7	80.1	36	51.2	1	5	90	0.00	30.106 
16:05	80.5	80.5	79.9	36	51.1	2	4	90	0.00	30.107 
16:10	80.7	80.7	80.0	35	50.5	0	2	90	0.00	30.107 
16:15	80.9	80.9	80.1	34	49.9	0	1	90	0.00	30.107 
16:20	81.1	81.1	80.4	36	51.6	1	3	90	0.00	30.107 
16:25	81.1	81.1	80.3	35	50.8	1	2	90	0.00	30.107 
16:30	81.1	81.1	80.3	35	50.8	1	3	90	0.00	30.107 
16:35	80.9	80.9	80.2	36	51.4	1	3	90	0.00	30.107 
16:40	80.9	80.9	80.3	37	52.2	1	4	90	0.00	30.106 
16:45	80.5	80.5	80.2	39	53.2	2	5	90	0.00	30.106 
16:50	80.3	80.3	80.1	40	53.8	1	4	90	0.00	30.108 
16:55	80.1	80.1	79.8	37	51.5	2	5	90	0.00	30.109 
17:00	79.9	79.9	79.6	37	51.3	1	5	68	0.00	30.109 
17:05	79.9	79.9	79.8	39	52.7	1	4	68	0.00	30.106 
17:10	79.8	79.8	79.7	39	52.6	1	3	68	0.00	30.106 
17:15	79.8	79.8	79.8	40	53.3	2	5	68	0.00	30.106 
17:20	79.6	79.6	79.5	38	51.7	2	4	68	0.00	30.106 
17:25	79.6	79.6	79.6	39	52.4	1	3	90	0.00	30.104 
17:30	79.2	79.2	79.3	38	51.4	1	4	90	0.00	30.106 
17:35	79.0	79.0	79.4	41	53.3	0	2	90	0.00	30.104 
17:40	79.0	79.0	79.3	40	52.6	0	2	90	0.00	30.103 
17:45	79.0	79.0	79.2	39	51.9	0	2	90	0.00	30.102 
17:50	78.8	78.8	79.1	39	51.7	0	2	90	0.00	30.101 
17:55	78.8	78.8	79.1	39	51.7	0	2	90	0.00	30.100 
18:00	79.0	79.0	79.3	40	52.6	1	3	90	0.00	30.101 
18:05	79.0	79.0	79.3	40	52.6	0	2	90	0.00	30.097 
18:10	78.8	78.8	79.2	41	53.1	0	2	90	0.00	30.097 
18:15	78.8	78.8	79.2	40	52.4	1	3	90	0.00	30.096 
18:20	78.6	78.6	79.1	41	52.9	1	2	90	0.00	30.098 
18:25	78.5	78.5	79.2	43	54.1	1	2	90	0.00	30.098 
18:30	78.6	78.6	79.2	43	54.2	0	1	90	0.00	30.099 
18:35	78.6	78.6	79.4	45	55.5	0	1	90	0.00	30.102 
18:40	78.6	78.6	79.2	43	54.2	0	1	90	0.00	30.102 
18:45	78.8	78.8	79.4	44	55.0	0	2	90	0.00	30.102 
18:50	78.8	78.8	79.4	43	54.4	0	1	90	0.00	30.101 
18:55	78.8	78.8	79.4	43	54.4	0	0	---	0.00	30.100 
19:00	78.6	78.6	79.2	43	54.2	0	0	---	0.00	30.099 
19:05	78.5	78.5	79.1	42	53.5	0	1	90	0.00	30.099 
19:10	78.6	78.6	79.7	50	58.4	1	4	90	0.00	30.098 
19:15	77.9	77.9	79.4	55	60.4	1	4	68	0.00	30.102 
19:20	77.2	77.2	78.9	58	61.3	1	3	248	0.00	30.101 
19:25	76.5	76.5	78.4	59	61.1	1	2	248	0.00	30.100 
19:30	76.1	76.1	78.1	61	61.7	0	1	248	0.00	30.101 
19:35	75.8	75.8	77.8	61	61.4	0	1	248	0.00	30.099 
19:40	75.6	75.6	77.7	62	61.6	0	1	248	0.00	30.099 
19:45	75.3	75.3	77.5	62	61.4	0	1	248	0.00	30.099 
19:50	75.1	75.1	77.3	63	61.6	0	0	---	0.00	30.101 
19:55	74.9	74.9	74.9	63	61.4	0	1	248	0.00	30.099 
20:00	74.6	74.6	74.6	64	61.6	0	0	---	0.00	30.095 
20:05	74.2	74.2	74.2	65	61.7	0	0	---	0.00	30.090 
20:10	73.9	73.9	73.9	65	61.4	0	0	---	0.00	30.089 
20:15	73.7	73.7	73.7	66	61.6	0	0	---	0.00	30.089 
20:20	73.3	73.3	73.3	66	61.2	0	1	248	0.00	30.090 
20:25	73.0	73.0	73.0	67	61.4	0	0	---	0.00	30.091 
20:30	72.7	72.7	72.7	68	61.5	0	0	---	0.00	30.093 
20:35	72.3	72.3	72.3	69	61.5	0	0	---	0.00	30.096 
20:40	72.0	72.0	72.0	69	61.3	0	0	---	0.00	30.098 
20:45	71.8	71.8	71.8	70	61.5	0	0	---	0.00	30.100 
20:50	71.5	71.5	71.5	71	61.6	0	0	---	0.00	30.100 
20:55	71.1	71.1	71.1	72	61.6	0	0	---	0.00	30.103 
21:00	70.8	70.8	70.8	73	61.7	0	0	---	0.00	30.104 
21:05	70.4	70.4	70.4	74	61.7	0	0	---	0.00	30.104 
21:10	70.3	70.3	70.3	74	61.6	0	0	---	0.00	30.106 
21:15	69.9	69.9	69.9	75	61.6	0	0	---	0.00	30.108 
21:20	69.6	69.6	69.6	76	61.7	0	0	---	0.00	30.111 
21:25	69.3	69.3	69.3	77	61.8	0	0	---	0.00	30.114 
21:30	69.1	69.1	69.1	77	61.6	0	0	---	0.00	30.115 
21:35	68.9	68.9	68.9	78	61.7	0	0	---	0.00	30.116 
21:40	68.6	68.6	68.6	78	61.5	0	0	---	0.00	30.117 
21:45	68.4	68.4	68.4	79	61.6	0	0	---	0.00	30.117 
21:50	68.3	68.3	68.3	80	61.9	0	0	---	0.00	30.117 
21:55	67.9	67.9	67.9	80	61.5	0	0	---	0.00	30.117 
22:00	67.8	67.8	67.8	81	61.7	0	0	---	0.00	30.117 
22:05	67.6	67.6	67.6	84	62.6	0	0	---	0.00	30.117 
22:10	67.3	67.3	67.3	84	62.3	0	0	---	0.00	30.118 
22:15	66.9	66.9	66.9	84	61.9	0	0	---	0.00	30.118 
22:20	66.8	66.8	66.8	85	62.1	0	0	---	0.00	30.117 
22:25	66.6	66.6	66.6	85	61.9	0	0	---	0.00	30.117 
22:30	66.3	66.3	66.3	86	62.0	0	0	---	0.00	30.118 
22:35	66.1	66.1	66.1	87	62.1	0	0	---	0.00	30.118 
22:40	66.0	66.0	66.0	87	62.0	0	0	---	0.00	30.118 
22:45	65.8	65.8	65.8	87	61.8	0	0	---	0.00	30.118 
22:50	65.5	65.5	65.5	88	61.8	0	0	---	0.00	30.118 
22:55	65.3	65.3	65.3	88	61.6	0	0	---	0.00	30.119 
23:00	65.2	65.2	65.2	88	61.6	0	0	---	0.00	30.120 
23:05	65.2	65.2	65.2	88	61.6	0	0	---	0.00	30.118 
23:10	65.0	65.0	65.0	88	61.4	0	0	---	0.00	30.117 
23:15	64.7	64.7	64.7	88	61.1	0	0	---	0.00	30.116 
23:20	64.7	64.7	64.7	89	61.4	0	0	---	0.00	30.116 
23:25	64.5	64.5	64.5	90	61.5	0	0	---	0.00	30.116 
23:30	64.3	64.3	64.3	90	61.3	0	0	---	0.00	30.118 
23:35	64.2	64.2	64.2	90	61.2	0	0	---	0.00	30.118 
23:40	64.0	64.0	64.0	90	61.0	0	0	---	0.00	30.118 
23:45	63.9	63.9	63.9	91	61.2	0	0	---	0.00	30.119 
23:50	63.9	63.9	63.9	92	61.5	0	0	---	0.00	30.122 
23:55	63.7	63.7	63.7	92	61.3	0	0	---	0.00	30.123 

CoCoRaHS
IN-AL-39
A2 Web Hosting
Creative Commons License
GoDaddy
Look for:

loaded 2017-12-11 14:12:22 • last modified 2010-11-18 10:43:29
Privacy PolicyDisclaimer
• wx.awcolley.com is powered by PmWiki v.2002016 •
• all content (unless otherwise noted) © 2017 A W Colley